Time;durP1;ratioP1;P1;durP2;ratioP2;P2;SDS_P1;SDS_P2;PMS_P1;PMS_P2;Temp;Humidity;BMP_temperature;BMP_pressure;BME280_temperature;BME280_humidity;BME280_pressure;Samples;Min_cycle;Max_cycle;Signal;HPM_P1;HPM_P2
2023/04/29 00:00:20;;;;;;;;;;;;;;;;;;5073768;28;2123;-39
2023/04/29 00:02:47;;;;;;;;;;;;;;;;;;5073890;28;2042;-42
2023/04/29 00:05:15;;;;;;;;;;;;;;;;;;5055950;28;1993;-39
2023/04/29 00:07:43;;;;;;;;;;;;;;;;;;5073572;28;1943;-41
2023/04/29 00:10:13;;;;;;;;;;;;;;;;;;5073488;28;2140;-39
2023/04/29 00:12:41;;;;;;;;;;;;;;;;;;5073324;28;1983;-38
2023/04/29 00:15:08;;;;;;;;;;;;;;;;;;5073546;28;1802;-50
2023/04/29 00:17:36;;;;;;;;;;;;;;;;;;5055767;28;1884;-40
2023/04/29 00:20:04;;;;;;;;;;;;;;;;;;5073513;28;2033;-38
2023/04/29 00:22:34;;;;;;;;;;;;;;;;;;5073386;28;1885;-59
2023/04/29 00:25:03;;;;;;;;;;;;;;;;;;5073212;28;2102;-38
2023/04/29 00:27:30;;;;;;;;;;;;;;;;;;5073250;28;1923;-38
2023/04/29 00:29:57;;;;;;;;;;;;;;;;;;5055343;28;2021;-39
2023/04/29 00:32:25;;;;;;;;;;;;;;;;;;5073465;28;2042;-38
2023/04/29 00:34:52;;;;;;;;;;;;;;;;;;5073697;28;2291;-39
2023/04/29 00:37:20;;;;;;;;;;;;;;;;;;5073267;28;1973;-39
2023/04/29 00:39:48;;;;;;;;;;;;;;;;;;5073376;28;1675;-38
2023/04/29 00:42:15;;;;;;;;;;;;;;;;;;5072997;28;1911;-38
2023/04/29 00:44:43;;;;;;;;;;;;;;;;;;5055154;28;2048;-38
2023/04/29 00:47:10;;;;;;;;;;;;;;;;;;5051436;28;2117;-50
2023/04/29 00:49:38;;;;;;;;;;;;;;;;;;5052838;28;2013;-44
2023/04/29 00:52:08;;;;;;;;;;;;;;;;;;5052863;28;1955;-40
2023/04/29 00:54:36;;;;;;;;;;;;;;;;;;5066851;28;2023;-39
2023/04/29 00:57:05;;;;;;;;;;;;;;;;;;5073077;28;1811;-39
2023/04/29 00:59:33;;;;;;;;;;;;;;;;;;5072197;28;1813;-38
2023/04/29 01:02:01;;;;;;;;;;;;;;;;;;5071687;28;1913;-38
2023/04/29 01:04:29;;;;;;;;;;;;;;;;;;5071060;28;2077;-38
2023/04/29 01:07:13;;;;;;;;;;;;;;;;;;5072832;28;2096;-38
2023/04/29 01:09:41;;;;;;;;;;;;;;;;;;5072757;28;2065;-38
2023/04/29 01:12:20;;;;;;;;;;;;;;;;;;5071256;28;1932;-39
2023/04/29 01:14:53;;;;;;;;;;;;;;;;;;5072168;28;2048;-53
2023/04/29 01:17:27;;;;;;;;;;;;;;;;;;5071219;28;2004;-39
2023/04/29 01:19:55;;;;;;;;;;;;;;;;;;5072369;28;2167;-39
2023/04/29 01:22:23;;;;;;;;;;;;;;;;;;5071062;28;1961;-39
2023/04/29 01:24:50;;;;;;;;;;;;;;;;;;5070771;28;2075;-55
2023/04/29 01:27:19;;;;;;;;;;;;;;;;;;5070733;28;1854;-38
2023/04/29 01:30:09;;;;;;;;;;;;;;;;;;5070764;28;1910;-42
2023/04/29 01:32:37;;;;;;;;;;;;;;;;;;5070573;28;1840;-50
2023/04/29 01:35:18;;;;;;;;;;;;;;;;;;5070744;28;1980;-39
2023/04/29 01:37:51;;;;;;;;;;;;;;;;;;5070361;28;1857;-38
2023/04/29 01:40:25;;;;;;;;;;;;;;;;;;5070504;28;2122;-39
2023/04/29 01:43:10;;;;;;;;;;;;;;;;;;5070383;28;1441;-50
2023/04/29 01:45:43;;;;;;;;;;;;;;;;;;5070510;28;2238;-39
2023/04/29 01:48:11;;;;;;;;;;;;;;;;;;5073701;28;1911;-39
2023/04/29 01:50:40;;;;;;;;;;;;;;;;;;5073549;28;1998;-42
2023/04/29 01:53:10;;;;;;;;;;;;;;;;;;5089573;28;1853;-38
2023/04/29 01:55:38;;;;;;;;;;;;;;;;;;5053624;28;2125;-51
2023/04/29 01:58:26;;;;;;;;;;;;;;;;;;5071284;28;2074;-39
2023/04/29 02:01:04;;;;;;;;;;;;;;;;;;5053556;28;1929;-39
2023/04/29 02:03:32;;;;;;;;;;;;;;;;;;5053629;28;1947;-39
2023/04/29 02:06:01;;;;;;;;;;;;;;;;;;5053466;28;1968;-39
2023/04/29 02:08:28;;;;;;;;;;;;;;;;;;5053347;28;2068;-39
2023/04/29 02:10:58;;;;;;;;;;;;;;;;;;5053504;28;2027;-39
2023/04/29 02:13:39;;;;;;;;;;;;;;;;;;5053369;28;2204;-39
2023/04/29 02:16:11;;;;;;;;;;;;;;;;;;5053172;28;2143;-42
2023/04/29 02:18:49;;;;;;;;;;;;;;;;;;5071217;28;1442;-39
2023/04/29 02:21:16;;;;;;;;;;;;;;;;;;5071280;28;2075;-44
2023/04/29 02:23:43;;;;;;;;;;;;;;;;;;5071121;28;1957;-39
2023/04/29 02:26:12;;;;;;;;;;;;;;;;;;5070963;28;2013;-39
2023/04/29 02:28:39;;;;;;;;;;;;;;;;;;5071409;28;1996;-41
2023/04/29 02:31:07;;;;;;;;;;;;;;;;;;5053228;28;1855;-38
2023/04/29 02:33:35;;;;;;;;;;;;;;;;;;5053235;28;2176;-43
2023/04/29 02:36:02;;;;;;;;;;;;;;;;;;5082516;28;1860;-39
2023/04/29 02:38:29;;;;;;;;;;;;;;;;;;5073100;28;1973;-47
2023/04/29 02:40:57;;;;;;;;;;;;;;;;;;5078968;28;2063;-38
2023/04/29 02:43:24;;;;;;;;;;;;;;;;;;5075086;28;2110;-39
2023/04/29 02:45:51;;;;;;;;;;;;;;;;;;5053022;28;2110;-40
2023/04/29 02:48:18;;;;;;;;;;;;;;;;;;5072201;28;1910;-40
2023/04/29 02:50:46;;;;;;;;;;;;;;;;;;5091113;28;1996;-40
2023/04/29 02:53:13;;;;;;;;;;;;;;;;;;5072852;28;2039;-41
2023/04/29 02:55:42;;;;;;;;;;;;;;;;;;5072924;28;2463;-39
2023/04/29 02:58:09;;;;;;;;;;;;;;;;;;5073058;28;2012;-42
2023/04/29 03:00:37;;;;;;;;;;;;;;;;;;5073065;28;1969;-39
2023/04/29 03:03:04;;;;;;;;;;;;;;;;;;5072911;28;1930;-39
2023/04/29 03:05:31;;;;;;;;;;;;;;;;;;5091160;28;2022;-44
2023/04/29 03:07:58;;;;;;;;;;;;;;;;;;5073011;28;1999;-48
2023/04/29 03:10:27;;;;;;;;;;;;;;;;;;5073124;28;1941;-39
2023/04/29 03:12:56;;;;;;;;;;;;;;;;;;5072843;28;1844;-41
2023/04/29 03:15:25;;;;;;;;;;;;;;;;;;5090939;28;1996;-45
2023/04/29 03:17:52;;;;;;;;;;;;;;;;;;5072762;28;2023;-40
2023/04/29 03:20:20;;;;;;;;;;;;;;;;;;5072562;28;1979;-40
2023/04/29 03:22:47;;;;;;;;;;;;;;;;;;5073557;28;1952;-50
2023/04/29 03:25:14;;;;;;;;;;;;;;;;;;5093897;28;2025;-41
2023/04/29 03:27:42;;;;;;;;;;;;;;;;;;5076334;28;2064;-39
2023/04/29 03:30:09;;;;;;;;;;;;;;;;;;5076351;28;2296;-44
2023/04/29 03:32:43;;;;;;;;;;;;;;;;;;5076227;28;1967;-40
2023/04/29 03:35:10;;;;;;;;;;;;;;;;;;5076420;28;2079;-40
2023/04/29 03:38:15;;;;;;;;;;;;;;;;;;5094227;28;1901;-39
2023/04/29 03:40:44;;;;;;;;;;;;;;;;;;5075985;28;2005;-39
2023/04/29 03:43:14;;;;;;;;;;;;;;;;;;5072730;28;1908;-39
2023/04/29 03:45:41;;;;;;;;;;;;;;;;;;5073739;28;2014;-46
2023/04/29 03:48:11;;;;;;;;;;;;;;;;;;5056060;28;2095;-39
2023/04/29 03:50:38;;;;;;;;;;;;;;;;;;5073855;28;2117;-48
2023/04/29 03:53:05;;;;;;;;;;;;;;;;;;5075516;28;2170;-39
2023/04/29 03:55:33;;;;;;;;;;;;;;;;;;5075958;28;2010;-39
2023/04/29 03:58:00;;;;;;;;;;;;;;;;;;5094203;28;2297;-39
2023/04/29 04:00:30;;;;;;;;;;;;;;;;;;5094006;28;1932;-41
2023/04/29 04:03:00;;;;;;;;;;;;;;;;;;5072498;28;2046;-39
2023/04/29 04:05:31;;;;;;;;;;;;;;;;;;5072520;28;2183;-43
2023/04/29 04:08:05;;;;;;;;;;;;;;;;;;5055861;28;1932;-44
2023/04/29 04:10:35;;;;;;;;;;;;;;;;;;5073568;28;2085;-39
2023/04/29 04:13:13;;;;;;;;;;;;;;;;;;5055677;28;1912;-39
2023/04/29 04:15:41;;;;;;;;;;;;;;;;;;5055407;28;2148;-39
2023/04/29 04:18:08;;;;;;;;;;;;;;;;;;5073491;28;2072;-39
2023/04/29 04:20:38;;;;;;;;;;;;;;;;;;5055400;28;1889;-39
2023/04/29 04:23:05;;;;;;;;;;;;;;;;;;5055850;28;1995;-44
2023/04/29 04:25:32;;;;;;;;;;;;;;;;;;5073599;28;1832;-39
2023/04/29 04:28:15;;;;;;;;;;;;;;;;;;5055361;28;1945;-39
2023/04/29 04:31:06;;;;;;;;;;;;;;;;;;5073599;28;1941;-43
2023/04/29 04:33:35;;;;;;;;;;;;;;;;;;5055039;28;2070;-39
2023/04/29 04:36:03;;;;;;;;;;;;;;;;;;5037905;28;2069;-40
2023/04/29 04:38:31;;;;;;;;;;;;;;;;;;5055016;28;1941;-38
2023/04/29 04:41:05;;;;;;;;;;;;;;;;;;5054997;28;1636;-44
2023/04/29 04:43:35;;;;;;;;;;;;;;;;;;5055065;28;1910;-41
2023/04/29 04:46:10;;;;;;;;;;;;;;;;;;5055134;28;1900;-47
2023/04/29 04:48:42;;;;;;;;;;;;;;;;;;5054718;28;2127;-39
2023/04/29 04:51:12;;;;;;;;;;;;;;;;;;5054758;28;1817;-42
2023/04/29 04:53:41;;;;;;;;;;;;;;;;;;5041751;28;1985;-42
2023/04/29 04:56:18;;;;;;;;;;;;;;;;;;5054866;28;2244;-39
2023/04/29 04:58:45;;;;;;;;;;;;;;;;;;5072652;28;2029;-38
2023/04/29 05:01:14;;;;;;;;;;;;;;;;;;5072884;28;2002;-41
2023/04/29 05:03:41;;;;;;;;;;;;;;;;;;5054530;28;2082;-40
2023/04/29 05:06:09;;;;;;;;;;;;;;;;;;5054590;28;2063;-39
2023/04/29 05:08:39;;;;;;;;;;;;;;;;;;5054654;28;2067;-41
2023/04/29 05:11:14;;;;;;;;;;;;;;;;;;5054625;28;2197;-38
2023/04/29 05:13:43;;;;;;;;;;;;;;;;;;5054450;28;1709;-39
2023/04/29 05:16:10;;;;;;;;;;;;;;;;;;5054911;28;2120;-38
2023/04/29 05:18:44;;;;;;;;;;;;;;;;;;5054685;28;2018;-42
2023/04/29 05:21:13;;;;;;;;;;;;;;;;;;5054501;28;1916;-40
2023/04/29 05:23:43;;;;;;;;;;;;;;;;;;5054747;28;1906;-40
2023/04/29 05:26:12;;;;;;;;;;;;;;;;;;5072228;28;1974;-39
2023/04/29 05:28:40;;;;;;;;;;;;;;;;;;5054455;28;1975;-45
2023/04/29 05:31:10;;;;;;;;;;;;;;;;;;5054110;28;2428;-40
2023/04/29 05:33:37;;;;;;;;;;;;;;;;;;5054223;28;1991;-40
2023/04/29 05:36:05;;;;;;;;;;;;;;;;;;5054104;28;2042;-39
2023/04/29 05:38:35;;;;;;;;;;;;;;;;;;5053979;28;2136;-40
2023/04/29 05:41:05;;;;;;;;;;;;;;;;;;5053932;28;1875;-40
2023/04/29 05:43:44;;;;;;;;;;;;;;;;;;5054121;28;2034;-40
2023/04/29 05:46:13;;;;;;;;;;;;;;;;;;5053511;28;1933;-39
2023/04/29 05:48:40;;;;;;;;;;;;;;;;;;5054243;28;1906;-40
2023/04/29 05:51:09;;;;;;;;;;;;;;;;;;5053865;28;1989;-41
2023/04/29 05:53:39;;;;;;;;;;;;;;;;;;5060049;28;2089;-40
2023/04/29 05:56:07;;;;;;;;;;;;;;;;;;5073605;28;2033;-40
2023/04/29 05:58:35;;;;;;;;;;;;;;;;;;5073604;28;1970;-50
2023/04/29 06:01:02;;;;;;;;;;;;;;;;;;5073487;28;2009;-49
2023/04/29 06:03:30;;;;;;;;;;;;;;;;;;5073424;28;1838;-50
2023/04/29 06:06:23;;;;;;;;;;;;;;;;;;5073534;28;1945;-47
2023/04/29 06:09:19;;;;;;;;;;;;;;;;;;5088232;28;2004;-49
2023/04/29 06:11:55;;;;;;;;;;;;;;;;;;5073440;28;2006;-41
2023/04/29 06:14:22;;;;;;;;;;;;;;;;;;5091667;28;2105;-47
2023/04/29 06:16:52;;;;;;;;;;;;;;;;;;5073453;28;1509;-43
2023/04/29 06:19:20;;;;;;;;;;;;;;;;;;5073187;28;1993;-44
2023/04/29 06:21:48;;;;;;;;;;;;;;;;;;5073379;28;2046;-41
2023/04/29 06:24:15;;;;;;;;;;;;;;;;;;5073003;28;2104;-41
2023/04/29 06:26:43;;;;;;;;;;;;;;;;;;5091479;28;2131;-46
2023/04/29 06:29:10;;;;;;;;;;;;;;;;;;5073660;28;1902;-42
2023/04/29 06:31:37;;;;;;;;;;;;;;;;;;5091329;28;2136;-42
2023/04/29 06:34:04;;;;;;;;;;;;;;;;;;5073355;28;1850;-41
2023/04/29 06:36:35;;;;;;;;;;;;;;;;;;5073148;28;1933;-41
2023/04/29 06:39:31;;;;;;;;;;;;;;;;;;5077565;28;2082;-43
2023/04/29 06:42:17;;;;;;;;;;;;;;;;;;5091282;28;1958;-48
2023/04/29 06:45:10;;;;;;;;;;;;;;;;;;5090917;28;2058;-48
2023/04/29 06:47:40;;;;;;;;;;;;;;;;;;5072791;28;2094;-43
2023/04/29 06:50:11;;;;;;;;;;;;;;;;;;5073091;28;2145;-54
2023/04/29 06:52:39;;;;;;;;;;;;;;;;;;5091067;28;1834;-42
2023/04/29 06:55:06;;;;;;;;;;;;;;;;;;5072375;28;1879;-41
2023/04/29 06:57:33;;;;;;;;;;;;;;;;;;5071413;28;1961;-41
2023/04/29 07:00:00;;;;;;;;;;;;;;;;;;5056738;28;2350;-57
2023/04/29 07:02:28;;;;;;;;;;;;;;;;;;5074708;28;2006;-45
2023/04/29 07:04:55;;;;;;;;;;;;;;;;;;5056654;28;2003;-41
2023/04/29 07:07:22;;;;;;;;;;;;;;;;;;5074599;28;2242;-44
2023/04/29 07:09:51;;;;;;;;;;;;;;;;;;5056830;28;1977;-42
2023/04/29 07:12:19;;;;;;;;;;;;;;;;;;5074652;28;1834;-41
2023/04/29 07:14:46;;;;;;;;;;;;;;;;;;5074833;28;1941;-41
2023/04/29 07:17:14;;;;;;;;;;;;;;;;;;5056877;28;1951;-42
2023/04/29 07:19:42;;;;;;;;;;;;;;;;;;5056235;28;1932;-41
2023/04/29 07:22:09;;;;;;;;;;;;;;;;;;5056460;28;2270;-40
2023/04/29 07:24:37;;;;;;;;;;;;;;;;;;5056417;28;1985;-41
2023/04/29 07:27:04;;;;;;;;;;;;;;;;;;5074270;28;2083;-40
2023/04/29 07:29:32;;;;;;;;;;;;;;;;;;5074260;28;1911;-43
2023/04/29 07:31:59;;;;;;;;;;;;;;;;;;5074192;28;2211;-41
2023/04/29 07:34:26;;;;;;;;;;;;;;;;;;5074214;28;1940;-41
2023/04/29 07:36:55;;;;;;;;;;;;;;;;;;5056081;28;2063;-42
2023/04/29 07:39:22;;;;;;;;;;;;;;;;;;5074074;28;2138;-41
2023/04/29 07:41:54;;;;;;;;;;;;;;;;;;5056238;28;2239;-40
2023/04/29 07:44:21;;;;;;;;;;;;;;;;;;5056022;28;1931;-40
2023/04/29 07:46:48;;;;;;;;;;;;;;;;;;5052787;28;1884;-44
2023/04/29 07:49:15;;;;;;;;;;;;;;;;;;5052904;28;1856;-40
2023/04/29 07:51:43;;;;;;;;;;;;;;;;;;5064263;28;1965;-44
2023/04/29 07:54:10;;;;;;;;;;;;;;;;;;5063289;28;2002;-40
2023/04/29 07:56:38;;;;;;;;;;;;;;;;;;5052416;28;2064;-47
2023/04/29 07:59:06;;;;;;;;;;;;;;;;;;5052456;28;2042;-47
2023/04/29 08:01:33;;;;;;;;;;;;;;;;;;5052163;28;1859;-50
2023/04/29 08:04:01;;;;;;;;;;;;;;;;;;5053564;28;1971;-40
2023/04/29 08:06:29;;;;;;;;;;;;;;;;;;5052583;28;2128;-40
2023/04/29 08:08:56;;;;;;;;;;;;;;;;;;5072052;28;2045;-41
2023/04/29 08:11:25;;;;;;;;;;;;;;;;;;5073572;28;2094;-41
2023/04/29 08:13:52;;;;;;;;;;;;;;;;;;5073161;28;2016;-40
2023/04/29 08:16:20;;;;;;;;;;;;;;;;;;5073587;28;2028;-40
2023/04/29 08:18:47;;;;;;;;;;;;;;;;;;5072262;28;1971;-42
2023/04/29 08:21:15;;;;;;;;;;;;;;;;;;5072013;28;1948;-55
2023/04/29 08:23:42;;;;;;;;;;;;;;;;;;5073362;28;2296;-39
2023/04/29 08:26:10;;;;;;;;;;;;;;;;;;5073105;28;1998;-41
2023/04/29 08:28:37;;;;;;;;;;;;;;;;;;5073466;28;2373;-40
2023/04/29 08:31:06;;;;;;;;;;;;;;;;;;5073274;28;1988;-45
2023/04/29 08:33:34;;;;;;;;;;;;;;;;;;5072932;28;2134;-44
2023/04/29 08:36:02;;;;;;;;;;;;;;;;;;5073142;28;1927;-43
2023/04/29 08:38:29;;;;;;;;;;;;;;;;;;5072864;28;2037;-45
2023/04/29 08:40:57;;;;;;;;;;;;;;;;;;5072720;28;2210;-47
2023/04/29 08:43:24;;;;;;;;;;;;;;;;;;5073233;28;2096;-40
2023/04/29 08:45:52;;;;;;;;;;;;;;;;;;5074703;28;1979;-46
2023/04/29 08:48:20;;;;;;;;;;;;;;;;;;5093271;28;1865;-50
2023/04/29 08:50:47;;;;;;;;;;;;;;;;;;5074615;28;1967;-44
2023/04/29 08:53:14;;;;;;;;;;;;;;;;;;5092850;28;2069;-47
2023/04/29 08:55:42;;;;;;;;;;;;;;;;;;5092937;28;1939;-42
2023/04/29 08:58:10;;;;;;;;;;;;;;;;;;5093090;28;2097;-46
2023/04/29 09:00:39;;;;;;;;;;;;;;;;;;5092878;28;1918;-41
2023/04/29 09:03:24;;;;;;;;;;;;;;;;;;5092680;28;2105;-42
2023/04/29 09:05:52;;;;;;;;;;;;;;;;;;5092816;28;1772;-40
2023/04/29 09:08:21;;;;;;;;;;;;;;;;;;5093251;28;2273;-43
2023/04/29 09:10:52;;;;;;;;;;;;;;;;;;5092942;28;2150;-49
2023/04/29 09:13:26;;;;;;;;;;;;;;;;;;5092685;28;2031;-41
2023/04/29 09:15:53;;;;;;;;;;;;;;;;;;5092724;28;1895;-40
2023/04/29 09:18:39;;;;;;;;;;;;;;;;;;5092519;28;2114;-47
2023/04/29 09:21:16;;;;;;;;;;;;;;;;;;5091603;28;1912;-39
2023/04/29 09:23:48;;;;;;;;;;;;;;;;;;5091616;28;2046;-41
2023/04/29 09:26:15;;;;;;;;;;;;;;;;;;5092359;28;1792;-40
2023/04/29 09:28:43;;;;;;;;;;;;;;;;;;5092036;28;2160;-45
2023/04/29 09:31:11;;;;;;;;;;;;;;;;;;5092179;28;2076;-49
2023/04/29 09:33:54;;;;;;;;;;;;;;;;;;5092098;28;2194;-42
2023/04/29 09:36:41;;;;;;;;;;;;;;;;;;5092189;28;1813;-40
2023/04/29 09:39:12;;;;;;;;;;;;;;;;;;5084701;28;1815;-41
2023/04/29 09:41:40;;;;;;;;;;;;;;;;;;5092082;28;2113;-42
2023/04/29 09:44:08;;;;;;;;;;;;;;;;;;5092051;28;1968;-46
2023/04/29 09:46:36;;;;;;;;;;;;;;;;;;5091691;28;1903;-41
2023/04/29 09:49:03;;;;;;;;;;;;;;;;;;5091905;28;2054;-43
2023/04/29 09:51:31;;;;;;;;;;;;;;;;;;5091670;28;2199;-42
2023/04/29 09:53:59;;;;;;;;;;;;;;;;;;5082514;28;2205;-43
2023/04/29 09:56:30;;;;;;;;;;;;;;;;;;5071757;28;1886;-50
2023/04/29 09:59:07;;;;;;;;;;;;;;;;;;5071711;28;1954;-54
2023/04/29 10:01:34;;;;;;;;;;;;;;;;;;5071484;28;1898;-45
2023/04/29 10:04:02;;;;;;;;;;;;;;;;;;5071384;28;1895;-42
2023/04/29 10:06:30;;;;;;;;;;;;;;;;;;5071371;28;1966;-40
2023/04/29 10:08:57;;;;;;;;;;;;;;;;;;5071552;28;1920;-43
2023/04/29 10:11:24;;;;;;;;;;;;;;;;;;5071391;28;2017;-42
2023/04/29 10:13:51;;;;;;;;;;;;;;;;;;5071170;28;1928;-43
2023/04/29 10:16:26;;;;;;;;;;;;;;;;;;5071169;28;1915;-41
2023/04/29 10:18:55;;;;;;;;;;;;;;;;;;5071075;28;2207;-49
2023/04/29 10:21:26;;;;;;;;;;;;;;;;;;5071236;28;2221;-46
2023/04/29 10:23:54;;;;;;;;;;;;;;;;;;5070913;28;2109;-44
2023/04/29 10:26:27;;;;;;;;;;;;;;;;;;5071146;28;1876;-43
2023/04/29 10:28:55;;;;;;;;;;;;;;;;;;5071097;28;1894;-41
2023/04/29 10:31:24;;;;;;;;;;;;;;;;;;5070852;28;1981;-40
2023/04/29 10:33:56;;;;;;;;;;;;;;;;;;5070541;28;1839;-49
2023/04/29 10:36:25;;;;;;;;;;;;;;;;;;5070865;28;2082;-41
2023/04/29 10:38:53;;;;;;;;;;;;;;;;;;5089708;28;1812;-48
2023/04/29 10:41:24;;;;;;;;;;;;;;;;;;5091077;28;2200;-42
2023/04/29 10:43:52;;;;;;;;;;;;;;;;;;5090796;28;1946;-44
2023/04/29 10:46:23;;;;;;;;;;;;;;;;;;5090703;28;2094;-51
2023/04/29 10:48:54;;;;;;;;;;;;;;;;;;5091349;28;1934;-53
2023/04/29 10:51:30;;;;;;;;;;;;;;;;;;5091009;28;1971;-45
2023/04/29 10:53:58;;;;;;;;;;;;;;;;;;5082198;28;1974;-48
2023/04/29 10:56:45;;;;;;;;;;;;;;;;;;5070749;28;1836;-59
2023/04/29 10:59:16;;;;;;;;;;;;;;;;;;5071002;28;1897;-49
2023/04/29 11:01:45;;;;;;;;;;;;;;;;;;5070836;28;1916;-46
2023/04/29 11:04:12;;;;;;;;;;;;;;;;;;5070969;28;1847;-42
2023/04/29 11:06:41;;;;;;;;;;;;;;;;;;5070594;28;2039;-44
2023/04/29 11:09:17;;;;;;;;;;;;;;;;;;5071016;28;2034;-47
2023/04/29 11:11:47;;;;;;;;;;;;;;;;;;5070470;28;1981;-48
2023/04/29 11:14:20;;;;;;;;;;;;;;;;;;5071089;28;2096;-59
2023/04/29 11:16:49;;;;;;;;;;;;;;;;;;5070622;28;1853;-45
2023/04/29 11:19:17;;;;;;;;;;;;;;;;;;5070472;28;1948;-45
2023/04/29 11:21:46;;;;;;;;;;;;;;;;;;5070640;28;1965;-45
2023/04/29 11:24:16;;;;;;;;;;;;;;;;;;5070301;28;1983;-57
2023/04/29 11:26:45;;;;;;;;;;;;;;;;;;5069940;28;2007;-45
2023/04/29 11:29:12;;;;;;;;;;;;;;;;;;5069392;28;1812;-51
2023/04/29 11:31:42;;;;;;;;;;;;;;;;;;5069584;28;2038;-41
2023/04/29 11:34:09;;;;;;;;;;;;;;;;;;5069786;28;1991;-45
2023/04/29 11:36:37;;;;;;;;;;;;;;;;;;5070181;28;1964;-50
2023/04/29 11:39:04;;;;;;;;;;;;;;;;;;5070250;28;1842;-40
2023/04/29 11:41:31;;;;;;;;;;;;;;;;;;5070416;28;1935;-45
2023/04/29 11:43:59;;;;;;;;;;;;;;;;;;5071469;28;1950;-48
2023/04/29 11:46:29;;;;;;;;;;;;;;;;;;5073434;28;1909;-43
2023/04/29 11:48:58;;;;;;;;;;;;;;;;;;5073674;28;2121;-40
2023/04/29 11:51:26;;;;;;;;;;;;;;;;;;5073789;28;2201;-40
2023/04/29 11:53:54;;;;;;;;;;;;;;;;;;5076946;28;2311;-49
2023/04/29 11:56:24;;;;;;;;;;;;;;;;;;5073782;28;1906;-42
2023/04/29 11:58:55;;;;;;;;;;;;;;;;;;5055595;28;1862;-45
2023/04/29 12:01:24;;;;;;;;;;;;;;;;;;5073664;28;2124;-43
2023/04/29 12:03:56;;;;;;;;;;;;;;;;;;5073591;28;1994;-43
2023/04/29 12:06:26;;;;;;;;;;;;;;;;;;5073617;28;2005;-41
2023/04/29 12:08:53;;;;;;;;;;;;;;;;;;5073708;28;2005;-47
2023/04/29 12:11:24;;;;;;;;;;;;;;;;;;5073511;28;2081;-50
2023/04/29 12:13:51;;;;;;;;;;;;;;;;;;5073444;28;2154;-42
2023/04/29 12:16:18;;;;;;;;;;;;;;;;;;5073514;28;1789;-50
2023/04/29 12:18:47;;;;;;;;;;;;;;;;;;5073465;28;2160;-47
2023/04/29 12:21:14;;;;;;;;;;;;;;;;;;5073319;28;1898;-45
2023/04/29 12:23:41;;;;;;;;;;;;;;;;;;5073193;28;2090;-44
2023/04/29 12:26:09;;;;;;;;;;;;;;;;;;5073573;28;1925;-45
2023/04/29 12:28:40;;;;;;;;;;;;;;;;;;5073796;28;2230;-41
2023/04/29 12:31:08;;;;;;;;;;;;;;;;;;5073138;28;1954;-46
2023/04/29 12:33:35;;;;;;;;;;;;;;;;;;5073548;28;1899;-40
2023/04/29 12:36:02;;;;;;;;;;;;;;;;;;5073200;28;2068;-47
2023/04/29 12:38:30;;;;;;;;;;;;;;;;;;5073173;28;1992;-46
2023/04/29 12:40:58;;;;;;;;;;;;;;;;;;5072913;28;1880;-43
2023/04/29 12:43:26;;;;;;;;;;;;;;;;;;5073288;28;1999;-43
2023/04/29 12:45:59;;;;;;;;;;;;;;;;;;5072729;28;2052;-49
2023/04/29 12:48:30;;;;;;;;;;;;;;;;;;5072783;28;2042;-46
2023/04/29 12:51:00;;;;;;;;;;;;;;;;;;5072374;28;1908;-50
2023/04/29 12:53:30;;;;;;;;;;;;;;;;;;5072604;28;1870;-45
2023/04/29 12:55:58;;;;;;;;;;;;;;;;;;5071715;28;1964;-44
2023/04/29 12:58:29;;;;;;;;;;;;;;;;;;5072677;28;2054;-39
2023/04/29 13:00:57;;;;;;;;;;;;;;;;;;5072780;28;1954;-46
2023/04/29 13:03:25;;;;;;;;;;;;;;;;;;5072674;28;1960;-47
2023/04/29 13:05:53;;;;;;;;;;;;;;;;;;5072504;28;2105;-41
2023/04/29 13:08:21;;;;;;;;;;;;;;;;;;5072403;28;1963;-42
2023/04/29 13:10:49;;;;;;;;;;;;;;;;;;5072333;28;2066;-47
2023/04/29 13:13:16;;;;;;;;;;;;;;;;;;5072364;28;1976;-40
2023/04/29 13:15:43;;;;;;;;;;;;;;;;;;5072234;28;1949;-44
2023/04/29 13:18:10;;;;;;;;;;;;;;;;;;5072204;28;1906;-42
2023/04/29 13:20:37;;;;;;;;;;;;;;;;;;5072425;28;1849;-48
2023/04/29 13:23:08;;;;;;;;;;;;;;;;;;5072065;28;2053;-41
2023/04/29 13:25:35;;;;;;;;;;;;;;;;;;5072171;28;2107;-38
2023/04/29 13:28:04;;;;;;;;;;;;;;;;;;5071918;28;1893;-46
2023/04/29 13:30:31;;;;;;;;;;;;;;;;;;5072010;28;1938;-53
2023/04/29 13:32:59;;;;;;;;;;;;;;;;;;5072112;28;2005;-44
2023/04/29 13:35:37;;;;;;;;;;;;;;;;;;5072052;28;2115;-40
2023/04/29 13:38:04;;;;;;;;;;;;;;;;;;5071832;28;2053;-45
2023/04/29 13:40:31;;;;;;;;;;;;;;;;;;5072198;28;2038;-40
2023/04/29 13:43:05;;;;;;;;;;;;;;;;;;5085274;28;1963;-41
2023/04/29 13:45:35;;;;;;;;;;;;;;;;;;5074486;28;1941;-42
2023/04/29 13:48:06;;;;;;;;;;;;;;;;;;5091719;28;1920;-41
2023/04/29 13:50:51;;;;;;;;;;;;;;;;;;5091833;28;1994;-42
2023/04/29 13:53:21;;;;;;;;;;;;;;;;;;5091366;28;1969;-45
2023/04/29 13:55:52;;;;;;;;;;;;;;;;;;5091724;28;2121;-48
2023/04/29 13:58:22;;;;;;;;;;;;;;;;;;5091753;28;1471;-52
2023/04/29 14:00:52;;;;;;;;;;;;;;;;;;5074628;28;1872;-39
2023/04/29 14:03:22;;;;;;;;;;;;;;;;;;5091970;28;1889;-45
2023/04/29 14:05:53;;;;;;;;;;;;;;;;;;5091631;28;2157;-42
2023/04/29 14:08:20;;;;;;;;;;;;;;;;;;5091661;28;1821;-43
2023/04/29 14:10:47;;;;;;;;;;;;;;;;;;5091971;28;2008;-40
2023/04/29 14:13:14;;;;;;;;;;;;;;;;;;5091566;28;2041;-40
2023/04/29 14:15:41;;;;;;;;;;;;;;;;;;5091580;28;1850;-40
2023/04/29 14:18:10;;;;;;;;;;;;;;;;;;5091294;28;1954;-42
2023/04/29 14:20:38;;;;;;;;;;;;;;;;;;5091710;28;1967;-45
2023/04/29 14:23:05;;;;;;;;;;;;;;;;;;5091044;28;2017;-43
2023/04/29 14:25:32;;;;;;;;;;;;;;;;;;5091338;28;1999;-44
2023/04/29 14:27:59;;;;;;;;;;;;;;;;;;5091435;28;1743;-46
2023/04/29 14:30:26;;;;;;;;;;;;;;;;;;5091256;28;2142;-47
2023/04/29 14:32:54;;;;;;;;;;;;;;;;;;5091349;28;2090;-40
2023/04/29 14:35:21;;;;;;;;;;;;;;;;;;5091375;28;1912;-40
2023/04/29 14:37:49;;;;;;;;;;;;;;;;;;5091452;28;1974;-40
2023/04/29 14:40:16;;;;;;;;;;;;;;;;;;5091737;28;1876;-41
2023/04/29 14:42:43;;;;;;;;;;;;;;;;;;5091708;28;2267;-49
2023/04/29 14:45:11;;;;;;;;;;;;;;;;;;5091348;28;1889;-52
2023/04/29 14:47:38;;;;;;;;;;;;;;;;;;5090853;28;2019;-54
2023/04/29 14:50:06;;;;;;;;;;;;;;;;;;5091119;28;1980;-42
2023/04/29 14:52:33;;;;;;;;;;;;;;;;;;5091097;28;2009;-40
2023/04/29 14:55:00;;;;;;;;;;;;;;;;;;5073435;28;1865;-40
2023/04/29 14:57:28;;;;;;;;;;;;;;;;;;5080767;28;2045;-40
2023/04/29 14:59:55;;;;;;;;;;;;;;;;;;5091255;28;1823;-42
2023/04/29 15:02:23;;;;;;;;;;;;;;;;;;5091203;28;2032;-41
2023/04/29 15:04:50;;;;;;;;;;;;;;;;;;5091260;28;1914;-39
2023/04/29 15:07:17;;;;;;;;;;;;;;;;;;5091551;28;1927;-39
2023/04/29 15:09:45;;;;;;;;;;;;;;;;;;5091354;28;2061;-49
2023/04/29 15:12:13;;;;;;;;;;;;;;;;;;5090998;28;1900;-40
2023/04/29 15:14:40;;;;;;;;;;;;;;;;;;5090639;28;2132;-40
2023/04/29 15:17:07;;;;;;;;;;;;;;;;;;5090971;28;2073;-46
2023/04/29 15:19:34;;;;;;;;;;;;;;;;;;5092915;28;2132;-44
2023/04/29 15:22:01;;;;;;;;;;;;;;;;;;5094850;28;1885;-42
2023/04/29 15:24:30;;;;;;;;;;;;;;;;;;5094639;28;1967;-46
2023/04/29 15:26:57;;;;;;;;;;;;;;;;;;5095214;28;1955;-43
2023/04/29 15:29:24;;;;;;;;;;;;;;;;;;5094621;28;2056;-40
2023/04/29 15:31:52;;;;;;;;;;;;;;;;;;5094548;28;2042;-40
2023/04/29 15:34:19;;;;;;;;;;;;;;;;;;5094791;28;2109;-38
2023/04/29 15:36:46;;;;;;;;;;;;;;;;;;5094805;28;1847;-40
2023/04/29 15:39:13;;;;;;;;;;;;;;;;;;5094403;28;2012;-41
2023/04/29 15:41:40;;;;;;;;;;;;;;;;;;5094393;28;2160;-48
2023/04/29 15:44:07;;;;;;;;;;;;;;;;;;5094476;28;1994;-40
2023/04/29 15:46:35;;;;;;;;;;;;;;;;;;5094477;28;2015;-40
2023/04/29 15:49:04;;;;;;;;;;;;;;;;;;5094218;28;2051;-45
2023/04/29 15:51:32;;;;;;;;;;;;;;;;;;5094131;28;2012;-40
2023/04/29 15:53:59;;;;;;;;;;;;;;;;;;5094109;28;2071;-40
2023/04/29 15:56:26;;;;;;;;;;;;;;;;;;5093794;28;2037;-39
2023/04/29 15:58:53;;;;;;;;;;;;;;;;;;5094324;28;1912;-40
2023/04/29 16:01:20;;;;;;;;;;;;;;;;;;5094466;28;1902;-41
2023/04/29 16:03:47;;;;;;;;;;;;;;;;;;5094185;28;2027;-39
2023/04/29 16:06:15;;;;;;;;;;;;;;;;;;5094105;28;1952;-46
2023/04/29 16:08:42;;;;;;;;;;;;;;;;;;5093968;28;1836;-45
2023/04/29 16:11:09;;;;;;;;;;;;;;;;;;5094130;28;1873;-41
2023/04/29 16:13:36;;;;;;;;;;;;;;;;;;5093754;28;1945;-45
2023/04/29 16:16:04;;;;;;;;;;;;;;;;;;5093769;28;2030;-41
2023/04/29 16:18:31;;;;;;;;;;;;;;;;;;5093050;28;2008;-48
2023/04/29 16:20:59;;;;;;;;;;;;;;;;;;5093572;28;2001;-40
2023/04/29 16:23:26;;;;;;;;;;;;;;;;;;5093397;28;1969;-43
2023/04/29 16:25:54;;;;;;;;;;;;;;;;;;5093493;28;1846;-40
2023/04/29 16:28:21;;;;;;;;;;;;;;;;;;5093940;28;1981;-45
2023/04/29 16:30:48;;;;;;;;;;;;;;;;;;5093782;28;1942;-40
2023/04/29 16:33:15;;;;;;;;;;;;;;;;;;5093290;28;1911;-42
2023/04/29 16:35:43;;;;;;;;;;;;;;;;;;5093346;28;2111;-62
2023/04/29 16:38:11;;;;;;;;;;;;;;;;;;5093187;28;1876;-50
2023/04/29 16:40:38;;;;;;;;;;;;;;;;;;5093331;28;1844;-40
2023/04/29 16:43:05;;;;;;;;;;;;;;;;;;5093366;28;2007;-39
2023/04/29 16:45:32;;;;;;;;;;;;;;;;;;5093410;28;1902;-46
2023/04/29 16:48:00;;;;;;;;;;;;;;;;;;5092981;28;1903;-45
2023/04/29 16:50:28;;;;;;;;;;;;;;;;;;5093066;28;1812;-42
2023/04/29 16:52:55;;;;;;;;;;;;;;;;;;5092875;28;1974;-40
2023/04/29 16:55:23;;;;;;;;;;;;;;;;;;5093168;28;2054;-43
2023/04/29 16:57:50;;;;;;;;;;;;;;;;;;5093330;28;2015;-45
2023/04/29 17:00:18;;;;;;;;;;;;;;;;;;5092846;28;1910;-43
2023/04/29 17:02:46;;;;;;;;;;;;;;;;;;5092932;28;1936;-39
2023/04/29 17:05:19;;;;;;;;;;;;;;;;;;5092786;28;1395;-46
2023/04/29 17:07:47;;;;;;;;;;;;;;;;;;5092743;28;2023;-42
2023/04/29 17:10:14;;;;;;;;;;;;;;;;;;5092691;28;1926;-40
2023/04/29 17:12:42;;;;;;;;;;;;;;;;;;5092667;28;1973;-39
2023/04/29 17:15:09;;;;;;;;;;;;;;;;;;5092726;28;1922;-48
2023/04/29 17:17:37;;;;;;;;;;;;;;;;;;5092417;28;1892;-40